sensor_id;sensor_type;location;lat;lon;timestamp;temperature;humidity
21419;DHT22;10870;51.384;10.316;2022-08-21T00:01:31;17.10;99.90
21419;DHT22;10870;51.384;10.316;2022-08-21T00:03:34;17.00;99.90
21419;DHT22;10870;51.384;10.316;2022-08-21T00:05:36;17.00;99.90
21419;DHT22;10870;51.384;10.316;2022-08-21T00:07:37;17.00;99.90
21419;DHT22;10870;51.384;10.316;2022-08-21T00:09:38;16.90;99.90
21419;DHT22;10870;51.384;10.316;2022-08-21T00:11:39;16.80;99.90
21419;DHT22;10870;51.384;10.316;2022-08-21T00:13:40;16.70;99.90
21419;DHT22;10870;51.384;10.316;2022-08-21T00:15:41;16.60;99.90
21419;DHT22;10870;51.384;10.316;2022-08-21T00:17:42;16.60;99.90
21419;DHT22;10870;51.384;10.316;2022-08-21T00:19:43;16.50;99.90
21419;DHT22;10870;51.384;10.316;2022-08-21T00:21:47;16.50;99.90
21419;DHT22;10870;51.384;10.316;2022-08-21T00:23:49;16.50;99.90
21419;DHT22;10870;51.384;10.316;2022-08-21T00:25:51;16.40;99.90
21419;DHT22;10870;51.384;10.316;2022-08-21T00:27:53;16.50;99.90
21419;DHT22;10870;51.384;10.316;2022-08-21T00:29:54;16.50;99.90
21419;DHT22;10870;51.384;10.316;2022-08-21T00:31:56;16.40;99.90
21419;DHT22;10870;51.384;10.316;2022-08-21T00:33:58;16.40;99.90
21419;DHT22;10870;51.384;10.316;2022-08-21T00:36:04;16.40;99.90
21419;DHT22;10870;51.384;10.316;2022-08-21T00:38:05;16.40;99.90
21419;DHT22;10870;51.384;10.316;2022-08-21T00:40:12;16.40;99.90
21419;DHT22;10870;51.384;10.316;2022-08-21T00:42:15;16.40;99.90
21419;DHT22;10870;51.384;10.316;2022-08-21T00:44:16;16.40;99.90
21419;DHT22;10870;51.384;10.316;2022-08-21T00:46:17;16.40;99.90
21419;DHT22;10870;51.384;10.316;2022-08-21T00:48:20;16.40;99.90
21419;DHT22;10870;51.384;10.316;2022-08-21T00:50:23;16.30;99.90
21419;DHT22;10870;51.384;10.316;2022-08-21T00:52:29;16.30;99.90
21419;DHT22;10870;51.384;10.316;2022-08-21T00:54:33;16.20;99.90
21419;DHT22;10870;51.384;10.316;2022-08-21T00:56:34;16.20;99.90
21419;DHT22;10870;51.384;10.316;2022-08-21T00:58:35;16.20;99.90
21419;DHT22;10870;51.384;10.316;2022-08-21T01:00:41;16.20;99.90
21419;DHT22;10870;51.384;10.316;2022-08-21T01:02:43;16.20;99.90
21419;DHT22;10870;51.384;10.316;2022-08-21T01:04:44;16.20;99.90
21419;DHT22;10870;51.384;10.316;2022-08-21T01:06:48;16.20;99.90
21419;DHT22;10870;51.384;10.316;2022-08-21T01:08:51;16.20;99.90
21419;DHT22;10870;51.384;10.316;2022-08-21T01:10:52;16.20;99.90
21419;DHT22;10870;51.384;10.316;2022-08-21T01:12:54;16.20;99.90
21419;DHT22;10870;51.384;10.316;2022-08-21T01:14:59;16.20;99.90
21419;DHT22;10870;51.384;10.316;2022-08-21T01:17:01;16.10;99.90
21419;DHT22;10870;51.384;10.316;2022-08-21T01:19:06;16.10;99.90
21419;DHT22;10870;51.384;10.316;2022-08-21T01:21:10;16.10;99.90
21419;DHT22;10870;51.384;10.316;2022-08-21T01:23:14;16.10;99.90
21419;DHT22;10870;51.384;10.316;2022-08-21T01:25:18;16.10;99.90
21419;DHT22;10870;51.384;10.316;2022-08-21T01:27:24;16.00;99.90
21419;DHT22;10870;51.384;10.316;2022-08-21T01:31:40;16.00;99.90
21419;DHT22;10870;51.384;10.316;2022-08-21T01:33:41;16.00;99.90
21419;DHT22;10870;51.384;10.316;2022-08-21T01:35:42;16.00;99.90
21419;DHT22;10870;51.384;10.316;2022-08-21T01:39:44;15.80;99.90
21419;DHT22;10870;51.384;10.316;2022-08-21T01:41:47;15.70;99.90
21419;DHT22;10870;51.384;10.316;2022-08-21T01:45:49;15.60;99.90
21419;DHT22;10870;51.384;10.316;2022-08-21T01:47:51;15.50;99.90
21419;DHT22;10870;51.384;10.316;2022-08-21T01:49:54;15.50;99.90
21419;DHT22;10870;51.384;10.316;2022-08-21T01:52:00;15.40;99.90
21419;DHT22;10870;51.384;10.316;2022-08-21T01:54:03;15.40;99.90
21419;DHT22;10870;51.384;10.316;2022-08-21T01:56:08;15.30;99.90
21419;DHT22;10870;51.384;10.316;2022-08-21T01:58:09;15.30;99.90
21419;DHT22;10870;51.384;10.316;2022-08-21T02:00:13;15.30;99.90
21419;DHT22;10870;51.384;10.316;2022-08-21T02:02:17;15.20;99.90
21419;DHT22;10870;51.384;10.316;2022-08-21T02:04:25;15.20;99.90
21419;DHT22;10870;51.384;10.316;2022-08-21T02:06:26;15.20;99.90
21419;DHT22;10870;51.384;10.316;2022-08-21T02:08:29;15.20;99.90
21419;DHT22;10870;51.384;10.316;2022-08-21T02:10:35;15.20;99.90
21419;DHT22;10870;51.384;10.316;2022-08-21T02:12:35;15.20;99.90
21419;DHT22;10870;51.384;10.316;2022-08-21T02:14:36;15.20;99.90
21419;DHT22;10870;51.384;10.316;2022-08-21T02:16:38;15.30;99.90
21419;DHT22;10870;51.384;10.316;2022-08-21T02:18:41;15.30;99.90
21419;DHT22;10870;51.384;10.316;2022-08-21T02:20:43;15.40;99.90
21419;DHT22;10870;51.384;10.316;2022-08-21T02:22:44;15.40;99.90
21419;DHT22;10870;51.384;10.316;2022-08-21T02:24:50;15.40;99.90
21419;DHT22;10870;51.384;10.316;2022-08-21T02:26:53;15.40;99.90
21419;DHT22;10870;51.384;10.316;2022-08-21T02:28:54;15.50;99.90
21419;DHT22;10870;51.384;10.316;2022-08-21T02:30:55;15.50;99.90
21419;DHT22;10870;51.384;10.316;2022-08-21T02:32:57;15.60;99.90
21419;DHT22;10870;51.384;10.316;2022-08-21T02:34:58;15.60;99.90
21419;DHT22;10870;51.384;10.316;2022-08-21T02:36:59;15.60;99.90
21419;DHT22;10870;51.384;10.316;2022-08-21T02:39:00;15.50;99.90
21419;DHT22;10870;51.384;10.316;2022-08-21T02:41:01;15.50;99.90
21419;DHT22;10870;51.384;10.316;2022-08-21T02:43:04;15.50;99.90
21419;DHT22;10870;51.384;10.316;2022-08-21T02:45:08;15.60;99.90
21419;DHT22;10870;51.384;10.316;2022-08-21T02:47:09;15.60;99.90
21419;DHT22;10870;51.384;10.316;2022-08-21T02:49:14;15.50;99.90
21419;DHT22;10870;51.384;10.316;2022-08-21T02:51:16;15.50;99.90
21419;DHT22;10870;51.384;10.316;2022-08-21T02:53:20;15.50;99.90
21419;DHT22;10870;51.384;10.316;2022-08-21T02:55:24;15.50;99.90
21419;DHT22;10870;51.384;10.316;2022-08-21T02:57:26;15.50;99.90
21419;DHT22;10870;51.384;10.316;2022-08-21T02:59:27;15.50;99.90
21419;DHT22;10870;51.384;10.316;2022-08-21T03:01:28;15.50;99.90
21419;DHT22;10870;51.384;10.316;2022-08-21T03:03:31;15.50;99.90
21419;DHT22;10870;51.384;10.316;2022-08-21T03:05:35;15.50;99.90
21419;DHT22;10870;51.384;10.316;2022-08-21T03:07:38;15.50;99.90
21419;DHT22;10870;51.384;10.316;2022-08-21T03:09:43;15.50;99.90
21419;DHT22;10870;51.384;10.316;2022-08-21T03:11:44;15.50;99.90
21419;DHT22;10870;51.384;10.316;2022-08-21T03:13:45;15.50;99.90
21419;DHT22;10870;51.384;10.316;2022-08-21T03:15:46;15.40;99.90
21419;DHT22;10870;51.384;10.316;2022-08-21T03:17:47;15.40;99.90
21419;DHT22;10870;51.384;10.316;2022-08-21T03:19:48;15.40;99.90
21419;DHT22;10870;51.384;10.316;2022-08-21T03:21:49;15.40;99.90
21419;DHT22;10870;51.384;10.316;2022-08-21T03:23:50;15.40;99.90
21419;DHT22;10870;51.384;10.316;2022-08-21T03:25:50;15.30;99.90
21419;DHT22;10870;51.384;10.316;2022-08-21T03:27:51;15.30;99.90
21419;DHT22;10870;51.384;10.316;2022-08-21T03:29:55;15.30;99.90
21419;DHT22;10870;51.384;10.316;2022-08-21T03:31:58;15.40;99.90
21419;DHT22;10870;51.384;10.316;2022-08-21T03:34:04;15.30;99.90
21419;DHT22;10870;51.384;10.316;2022-08-21T03:36:08;15.30;99.90
21419;DHT22;10870;51.384;10.316;2022-08-21T03:38:10;15.30;99.90
21419;DHT22;10870;51.384;10.316;2022-08-21T03:40:19;15.30;99.90
21419;DHT22;10870;51.384;10.316;2022-08-21T03:42:25;15.30;99.90
21419;DHT22;10870;51.384;10.316;2022-08-21T03:44:29;15.30;99.90
21419;DHT22;10870;51.384;10.316;2022-08-21T03:46:30;15.30;99.90
21419;DHT22;10870;51.384;10.316;2022-08-21T03:48:35;15.30;99.90
21419;DHT22;10870;51.384;10.316;2022-08-21T03:50:38;15.30;99.90
21419;DHT22;10870;51.384;10.316;2022-08-21T03:52:41;15.30;99.90
21419;DHT22;10870;51.384;10.316;2022-08-21T03:54:48;15.30;99.90
21419;DHT22;10870;51.384;10.316;2022-08-21T03:57:04;15.20;99.90
21419;DHT22;10870;51.384;10.316;2022-08-21T03:59:12;15.30;99.90
21419;DHT22;10870;51.384;10.316;2022-08-21T04:01:13;15.30;99.90
21419;DHT22;10870;51.384;10.316;2022-08-21T04:03:17;15.30;99.90
21419;DHT22;10870;51.384;10.316;2022-08-21T04:05:19;15.30;99.90
21419;DHT22;10870;51.384;10.316;2022-08-21T04:07:44;15.20;99.90
21419;DHT22;10870;51.384;10.316;2022-08-21T04:09:53;15.20;99.90
21419;DHT22;10870;51.384;10.316;2022-08-21T04:12:02;15.30;99.90
21419;DHT22;10870;51.384;10.316;2022-08-21T04:14:14;15.30;99.90
21419;DHT22;10870;51.384;10.316;2022-08-21T04:16:21;15.30;99.90
21419;DHT22;10870;51.384;10.316;2022-08-21T04:18:26;15.30;99.90
21419;DHT22;10870;51.384;10.316;2022-08-21T04:20:28;15.30;99.90
21419;DHT22;10870;51.384;10.316;2022-08-21T04:22:46;15.30;99.90
21419;DHT22;10870;51.384;10.316;2022-08-21T04:24:55;15.30;99.90
21419;DHT22;10870;51.384;10.316;2022-08-21T04:26:59;15.30;99.90
21419;DHT22;10870;51.384;10.316;2022-08-21T04:29:00;15.30;99.90
21419;DHT22;10870;51.384;10.316;2022-08-21T04:31:01;15.40;99.90
21419;DHT22;10870;51.384;10.316;2022-08-21T04:33:02;15.40;99.90
21419;DHT22;10870;51.384;10.316;2022-08-21T04:35:08;15.40;99.90
21419;DHT22;10870;51.384;10.316;2022-08-21T04:37:12;15.50;99.90
21419;DHT22;10870;51.384;10.316;2022-08-21T04:39:18;15.50;99.90
21419;DHT22;10870;51.384;10.316;2022-08-21T04:41:19;15.60;99.90
21419;DHT22;10870;51.384;10.316;2022-08-21T04:43:22;15.50;99.90
21419;DHT22;10870;51.384;10.316;2022-08-21T04:45:28;15.50;99.90
21419;DHT22;10870;51.384;10.316;2022-08-21T04:47:34;15.50;99.90
21419;DHT22;10870;51.384;10.316;2022-08-21T04:49:36;15.50;99.90
21419;DHT22;10870;51.384;10.316;2022-08-21T04:51:39;15.60;99.90
21419;DHT22;10870;51.384;10.316;2022-08-21T04:53:44;15.50;99.90
21419;DHT22;10870;51.384;10.316;2022-08-21T04:55:46;15.60;99.90
21419;DHT22;10870;51.384;10.316;2022-08-21T04:57:49;15.60;99.90
21419;DHT22;10870;51.384;10.316;2022-08-21T04:59:56;15.60;99.90
21419;DHT22;10870;51.384;10.316;2022-08-21T05:01:57;15.60;99.90
21419;DHT22;10870;51.384;10.316;2022-08-21T05:03:59;15.70;99.90
21419;DHT22;10870;51.384;10.316;2022-08-21T05:06:00;15.70;99.90
21419;DHT22;10870;51.384;10.316;2022-08-21T05:08:02;15.70;99.90
21419;DHT22;10870;51.384;10.316;2022-08-21T05:10:05;15.80;99.90
21419;DHT22;10870;51.384;10.316;2022-08-21T05:12:08;15.80;99.90
21419;DHT22;10870;51.384;10.316;2022-08-21T05:14:10;15.80;99.90
21419;DHT22;10870;51.384;10.316;2022-08-21T05:16:12;15.90;99.90
21419;DHT22;10870;51.384;10.316;2022-08-21T05:18:16;15.90;99.90
21419;DHT22;10870;51.384;10.316;2022-08-21T05:20:17;15.90;99.90
21419;DHT22;10870;51.384;10.316;2022-08-21T05:22:20;15.90;99.90
21419;DHT22;10870;51.384;10.316;2022-08-21T05:24:21;15.80;99.90
21419;DHT22;10870;51.384;10.316;2022-08-21T05:26:21;15.80;99.90
21419;DHT22;10870;51.384;10.316;2022-08-21T05:28:22;15.80;99.90
21419;DHT22;10870;51.384;10.316;2022-08-21T05:30:26;15.80;99.90
21419;DHT22;10870;51.384;10.316;2022-08-21T05:32:27;15.80;99.90
21419;DHT22;10870;51.384;10.316;2022-08-21T05:34:28;15.90;99.90
21419;DHT22;10870;51.384;10.316;2022-08-21T05:36:31;15.90;99.90
21419;DHT22;10870;51.384;10.316;2022-08-21T05:38:32;15.90;99.90
21419;DHT22;10870;51.384;10.316;2022-08-21T05:40:35;15.90;99.90
21419;DHT22;10870;51.384;10.316;2022-08-21T05:42:36;15.90;99.90
21419;DHT22;10870;51.384;10.316;2022-08-21T05:44:37;16.00;99.90
21419;DHT22;10870;51.384;10.316;2022-08-21T05:46:38;16.00;99.90
21419;DHT22;10870;51.384;10.316;2022-08-21T05:48:41;16.10;99.90
21419;DHT22;10870;51.384;10.316;2022-08-21T05:50:43;16.10;99.90
21419;DHT22;10870;51.384;10.316;2022-08-21T05:52:44;16.10;99.90
21419;DHT22;10870;51.384;10.316;2022-08-21T05:54:45;16.20;99.90
21419;DHT22;10870;51.384;10.316;2022-08-21T05:56:45;16.30;99.90
21419;DHT22;10870;51.384;10.316;2022-08-21T05:58:49;16.30;99.90
21419;DHT22;10870;51.384;10.316;2022-08-21T06:01:07;16.40;99.90
21419;DHT22;10870;51.384;10.316;2022-08-21T06:03:13;16.40;99.90
21419;DHT22;10870;51.384;10.316;2022-08-21T06:05:45;16.50;99.90
21419;DHT22;10870;51.384;10.316;2022-08-21T06:07:49;16.50;99.90
21419;DHT22;10870;51.384;10.316;2022-08-21T06:09:52;16.50;99.90
21419;DHT22;10870;51.384;10.316;2022-08-21T06:11:56;16.60;99.90
21419;DHT22;10870;51.384;10.316;2022-08-21T06:13:57;16.60;99.90
21419;DHT22;10870;51.384;10.316;2022-08-21T06:16:02;16.60;99.90
21419;DHT22;10870;51.384;10.316;2022-08-21T06:18:04;16.60;99.90
21419;DHT22;10870;51.384;10.316;2022-08-21T06:20:05;16.70;99.90
21419;DHT22;10870;51.384;10.316;2022-08-21T06:22:06;16.70;99.90
21419;DHT22;10870;51.384;10.316;2022-08-21T06:26:23;16.80;99.90
21419;DHT22;10870;51.384;10.316;2022-08-21T06:28:24;16.90;99.90
21419;DHT22;10870;51.384;10.316;2022-08-21T06:30:28;16.80;99.90
21419;DHT22;10870;51.384;10.316;2022-08-21T06:32:31;16.90;99.90
21419;DHT22;10870;51.384;10.316;2022-08-21T06:34:35;16.90;99.90
21419;DHT22;10870;51.384;10.316;2022-08-21T06:36:36;16.80;99.90
21419;DHT22;10870;51.384;10.316;2022-08-21T06:38:50;16.80;99.90
21419;DHT22;10870;51.384;10.316;2022-08-21T06:40:56;16.80;99.90
21419;DHT22;10870;51.384;10.316;2022-08-21T06:43:15;16.80;99.90
21419;DHT22;10870;51.384;10.316;2022-08-21T06:45:16;16.80;99.90
21419;DHT22;10870;51.384;10.316;2022-08-21T06:47:18;16.90;99.90
21419;DHT22;10870;51.384;10.316;2022-08-21T06:49:19;16.90;99.90
21419;DHT22;10870;51.384;10.316;2022-08-21T06:51:23;16.90;99.90
21419;DHT22;10870;51.384;10.316;2022-08-21T06:53:28;16.90;99.90
21419;DHT22;10870;51.384;10.316;2022-08-21T06:55:30;17.00;99.90
21419;DHT22;10870;51.384;10.316;2022-08-21T06:57:33;17.10;99.90
21419;DHT22;10870;51.384;10.316;2022-08-21T06:59:34;17.10;99.90
21419;DHT22;10870;51.384;10.316;2022-08-21T07:01:44;17.20;99.90
21419;DHT22;10870;51.384;10.316;2022-08-21T07:03:48;17.20;99.90
21419;DHT22;10870;51.384;10.316;2022-08-21T07:05:49;17.30;99.90
21419;DHT22;10870;51.384;10.316;2022-08-21T07:07:50;17.30;99.90
21419;DHT22;10870;51.384;10.316;2022-08-21T07:10:36;17.40;99.90
21419;DHT22;10870;51.384;10.316;2022-08-21T07:12:36;17.40;99.90
21419;DHT22;10870;51.384;10.316;2022-08-21T07:15:05;17.50;99.90
21419;DHT22;10870;51.384;10.316;2022-08-21T07:17:06;17.60;99.90
21419;DHT22;10870;51.384;10.316;2022-08-21T07:19:07;17.70;99.90
21419;DHT22;10870;51.384;10.316;2022-08-21T07:21:08;17.70;99.90
21419;DHT22;10870;51.384;10.316;2022-08-21T07:23:18;17.80;99.90
21419;DHT22;10870;51.384;10.316;2022-08-21T07:25:21;17.90;99.90
21419;DHT22;10870;51.384;10.316;2022-08-21T07:27:22;18.00;99.90
21419;DHT22;10870;51.384;10.316;2022-08-21T07:29:24;18.00;99.90
21419;DHT22;10870;51.384;10.316;2022-08-21T07:31:25;18.10;99.90
21419;DHT22;10870;51.384;10.316;2022-08-21T07:33:27;18.20;99.90
21419;DHT22;10870;51.384;10.316;2022-08-21T07:35:28;18.30;99.90
21419;DHT22;10870;51.384;10.316;2022-08-21T07:37:31;18.40;99.90
21419;DHT22;10870;51.384;10.316;2022-08-21T07:39:34;18.50;99.90
21419;DHT22;10870;51.384;10.316;2022-08-21T07:41:37;18.60;99.90
21419;DHT22;10870;51.384;10.316;2022-08-21T07:43:38;18.70;99.90
21419;DHT22;10870;51.384;10.316;2022-08-21T07:45:39;18.70;99.90
21419;DHT22;10870;51.384;10.316;2022-08-21T07:47:40;18.80;99.90
21419;DHT22;10870;51.384;10.316;2022-08-21T07:49:44;18.90;99.90
21419;DHT22;10870;51.384;10.316;2022-08-21T07:51:46;18.90;99.90
21419;DHT22;10870;51.384;10.316;2022-08-21T07:53:48;19.00;99.90
21419;DHT22;10870;51.384;10.316;2022-08-21T07:55:50;19.10;99.90
21419;DHT22;10870;51.384;10.316;2022-08-21T07:57:53;19.10;99.90
21419;DHT22;10870;51.384;10.316;2022-08-21T07:59:54;19.10;99.90
21419;DHT22;10870;51.384;10.316;2022-08-21T08:01:57;19.10;99.90
21419;DHT22;10870;51.384;10.316;2022-08-21T08:04:03;19.20;99.90
21419;DHT22;10870;51.384;10.316;2022-08-21T08:06:06;19.30;99.90
21419;DHT22;10870;51.384;10.316;2022-08-21T08:08:12;19.40;99.90
21419;DHT22;10870;51.384;10.316;2022-08-21T08:10:17;19.40;99.90
21419;DHT22;10870;51.384;10.316;2022-08-21T08:12:19;19.40;99.90
21419;DHT22;10870;51.384;10.316;2022-08-21T08:14:20;19.60;99.90
21419;DHT22;10870;51.384;10.316;2022-08-21T08:16:25;19.50;99.90
21419;DHT22;10870;51.384;10.316;2022-08-21T08:18:26;19.40;99.90
21419;DHT22;10870;51.384;10.316;2022-08-21T08:20:30;19.40;99.90
21419;DHT22;10870;51.384;10.316;2022-08-21T08:22:31;19.40;99.90
21419;DHT22;10870;51.384;10.316;2022-08-21T08:24:32;19.50;99.90
21419;DHT22;10870;51.384;10.316;2022-08-21T08:26:44;19.60;99.90
21419;DHT22;10870;51.384;10.316;2022-08-21T08:28:45;19.80;99.90
21419;DHT22;10870;51.384;10.316;2022-08-21T08:30:48;19.80;99.90
21419;DHT22;10870;51.384;10.316;2022-08-21T08:32:52;19.80;99.90
21419;DHT22;10870;51.384;10.316;2022-08-21T08:34:53;19.90;99.90
21419;DHT22;10870;51.384;10.316;2022-08-21T08:36:54;20.00;99.90
21419;DHT22;10870;51.384;10.316;2022-08-21T08:39:00;20.20;99.90
21419;DHT22;10870;51.384;10.316;2022-08-21T09:23:46;21.10;99.90
21419;DHT22;10870;51.384;10.316;2022-08-21T09:41:08;21.50;99.90
21419;DHT22;10870;51.384;10.316;2022-08-21T09:43:21;21.60;99.90
21419;DHT22;10870;51.384;10.316;2022-08-21T09:45:26;21.70;99.90
21419;DHT22;10870;51.384;10.316;2022-08-21T09:47:29;21.90;99.90
21419;DHT22;10870;51.384;10.316;2022-08-21T09:49:34;21.80;99.90
21419;DHT22;10870;51.384;10.316;2022-08-21T09:51:49;22.10;99.90
21419;DHT22;10870;51.384;10.316;2022-08-21T09:53:52;22.20;99.90
21419;DHT22;10870;51.384;10.316;2022-08-21T09:55:56;22.10;99.90
21419;DHT22;10870;51.384;10.316;2022-08-21T09:58:37;22.10;99.90
21419;DHT22;10870;51.384;10.316;2022-08-21T10:00:47;22.00;99.90
21419;DHT22;10870;51.384;10.316;2022-08-21T10:03:09;22.00;99.90
21419;DHT22;10870;51.384;10.316;2022-08-21T10:05:17;22.00;99.90
21419;DHT22;10870;51.384;10.316;2022-08-21T10:07:20;22.10;99.90
21419;DHT22;10870;51.384;10.316;2022-08-21T10:09:24;22.00;99.90
21419;DHT22;10870;51.384;10.316;2022-08-21T10:11:27;21.90;99.90
21419;DHT22;10870;51.384;10.316;2022-08-21T22:25:49;19.70;99.90
21419;DHT22;10870;51.384;10.316;2022-08-21T22:27:56;18.90;99.90
21419;DHT22;10870;51.384;10.316;2022-08-21T22:30:00;18.70;99.90
21419;DHT22;10870;51.384;10.316;2022-08-21T22:32:05;18.70;99.90
21419;DHT22;10870;51.384;10.316;2022-08-21T22:34:14;18.60;99.90
21419;DHT22;10870;51.384;10.316;2022-08-21T22:36:17;18.80;99.90
21419;DHT22;10870;51.384;10.316;2022-08-21T22:38:34;18.50;99.90
21419;DHT22;10870;51.384;10.316;2022-08-21T22:40:40;18.50;99.90
21419;DHT22;10870;51.384;10.316;2022-08-21T22:42:56;18.30;99.90
21419;DHT22;10870;51.384;10.316;2022-08-21T22:45:01;18.10;99.90
21419;DHT22;10870;51.384;10.316;2022-08-21T22:47:06;18.20;99.90
21419;DHT22;10870;51.384;10.316;2022-08-21T22:49:08;18.10;99.90
21419;DHT22;10870;51.384;10.316;2022-08-21T22:51:13;18.10;99.90
21419;DHT22;10870;51.384;10.316;2022-08-21T22:53:24;18.00;99.90
21419;DHT22;10870;51.384;10.316;2022-08-21T22:57:40;17.80;99.90
21419;DHT22;10870;51.384;10.316;2022-08-21T22:59:51;17.80;99.90
21419;DHT22;10870;51.384;10.316;2022-08-21T23:02:04;17.60;99.90
21419;DHT22;10870;51.384;10.316;2022-08-21T23:04:22;17.70;99.90
21419;DHT22;10870;51.384;10.316;2022-08-21T23:06:42;17.60;99.90
21419;DHT22;10870;51.384;10.316;2022-08-21T23:08:44;17.50;99.90
21419;DHT22;10870;51.384;10.316;2022-08-21T23:10:45;17.50;99.90
21419;DHT22;10870;51.384;10.316;2022-08-21T23:12:48;17.50;99.90
21419;DHT22;10870;51.384;10.316;2022-08-21T23:14:54;17.60;99.90
21419;DHT22;10870;51.384;10.316;2022-08-21T23:17:15;17.60;99.90
21419;DHT22;10870;51.384;10.316;2022-08-21T23:26:18;17.50;99.90
21419;DHT22;10870;51.384;10.316;2022-08-21T23:30:40;17.50;99.90
21419;DHT22;10870;51.384;10.316;2022-08-21T23:48:43;17.90;99.90
21419;DHT22;10870;51.384;10.316;2022-08-21T23:51:07;17.90;99.90
21419;DHT22;10870;51.384;10.316;2022-08-21T23:53:23;17.90;99.90
21419;DHT22;10870;51.384;10.316;2022-08-21T23:55:50;17.90;99.90
21419;DHT22;10870;51.384;10.316;2022-08-21T23:57:57;17.90;99.90
